sensor_id;sensor_type;location;lat;lon;timestamp;P1;durP1;ratioP1;P2;durP2;ratioP2
52102;SDS011;38101;53.126;6.878;2023-11-22T00:00:27;9.60;;;6.53;;
52102;SDS011;38101;53.126;6.878;2023-11-22T00:02:53;8.05;;;5.70;;
52102;SDS011;38101;53.126;6.878;2023-11-22T00:05:19;8.50;;;6.22;;
52102;SDS011;38101;53.126;6.878;2023-11-22T00:07:44;11.63;;;5.97;;
52102;SDS011;38101;53.126;6.878;2023-11-22T00:10:10;7.80;;;4.95;;
52102;SDS011;38101;53.126;6.878;2023-11-22T00:12:36;10.25;;;5.88;;
52102;SDS011;38101;53.126;6.878;2023-11-22T00:15:06;9.30;;;6.05;;
52102;SDS011;38101;53.126;6.878;2023-11-22T00:17:33;8.05;;;5.70;;
52102;SDS011;38101;53.126;6.878;2023-11-22T00:20:00;8.00;;;5.97;;
52102;SDS011;38101;53.126;6.878;2023-11-22T00:22:29;9.57;;;5.47;;
52102;SDS011;38101;53.126;6.878;2023-11-22T00:24:57;8.45;;;5.60;;
52102;SDS011;38101;53.126;6.878;2023-11-22T00:27:23;8.63;;;5.63;;
52102;SDS011;38101;53.126;6.878;2023-11-22T00:29:49;7.20;;;5.63;;
52102;SDS011;38101;53.126;6.878;2023-11-22T00:32:14;8.35;;;5.85;;
52102;SDS011;38101;53.126;6.878;2023-11-22T00:34:40;10.32;;;5.72;;
52102;SDS011;38101;53.126;6.878;2023-11-22T00:37:06;9.30;;;6.10;;
52102;SDS011;38101;53.126;6.878;2023-11-22T00:39:32;9.43;;;5.95;;
52102;SDS011;38101;53.126;6.878;2023-11-22T00:41:57;9.05;;;6.03;;
52102;SDS011;38101;53.126;6.878;2023-11-22T00:44:23;9.38;;;5.88;;
52102;SDS011;38101;53.126;6.878;2023-11-22T00:46:49;8.52;;;5.60;;
52102;SDS011;38101;53.126;6.878;2023-11-22T00:49:15;9.50;;;6.13;;
52102;SDS011;38101;53.126;6.878;2023-11-22T00:51:40;9.05;;;5.63;;
52102;SDS011;38101;53.126;6.878;2023-11-22T00:54:07;8.45;;;5.55;;
52102;SDS011;38101;53.126;6.878;2023-11-22T00:56:33;8.73;;;5.68;;
52102;SDS011;38101;53.126;6.878;2023-11-22T00:58:58;11.55;;;7.03;;
52102;SDS011;38101;53.126;6.878;2023-11-22T01:01:25;9.75;;;5.85;;
52102;SDS011;38101;53.126;6.878;2023-11-22T01:03:51;7.40;;;4.85;;
52102;SDS011;38101;53.126;6.878;2023-11-22T01:06:17;8.43;;;5.20;;
52102;SDS011;38101;53.126;6.878;2023-11-22T01:08:45;7.47;;;4.75;;
52102;SDS011;38101;53.126;6.878;2023-11-22T01:11:13;8.82;;;4.93;;
52102;SDS011;38101;53.126;6.878;2023-11-22T01:13:38;7.90;;;4.90;;
52102;SDS011;38101;53.126;6.878;2023-11-22T01:16:08;8.93;;;5.05;;
52102;SDS011;38101;53.126;6.878;2023-11-22T01:18:37;7.20;;;4.72;;
52102;SDS011;38101;53.126;6.878;2023-11-22T01:21:03;7.55;;;4.95;;
52102;SDS011;38101;53.126;6.878;2023-11-22T01:23:32;7.65;;;5.15;;
52102;SDS011;38101;53.126;6.878;2023-11-22T01:25:58;10.13;;;6.00;;
52102;SDS011;38101;53.126;6.878;2023-11-22T01:28:25;9.38;;;5.90;;
52102;SDS011;38101;53.126;6.878;2023-11-22T01:30:52;9.80;;;6.00;;
52102;SDS011;38101;53.126;6.878;2023-11-22T01:33:22;10.13;;;5.95;;
52102;SDS011;38101;53.126;6.878;2023-11-22T01:35:48;9.57;;;5.93;;
52102;SDS011;38101;53.126;6.878;2023-11-22T01:38:15;9.20;;;6.03;;
52102;SDS011;38101;53.126;6.878;2023-11-22T01:40:44;9.15;;;6.00;;
52102;SDS011;38101;53.126;6.878;2023-11-22T01:43:15;8.80;;;5.65;;
52102;SDS011;38101;53.126;6.878;2023-11-22T01:45:42;9.05;;;5.55;;
52102;SDS011;38101;53.126;6.878;2023-11-22T01:48:09;9.43;;;5.30;;
52102;SDS011;38101;53.126;6.878;2023-11-22T01:50:39;7.40;;;5.00;;
52102;SDS011;38101;53.126;6.878;2023-11-22T01:53:11;10.80;;;4.75;;
52102;SDS011;38101;53.126;6.878;2023-11-22T01:55:38;5.47;;;3.83;;
52102;SDS011;38101;53.126;6.878;2023-11-22T01:58:06;6.03;;;4.25;;
52102;SDS011;38101;53.126;6.878;2023-11-22T02:00:32;9.35;;;5.88;;
52102;SDS011;38101;53.126;6.878;2023-11-22T02:05:32;8.93;;;5.68;;
52102;SDS011;38101;53.126;6.878;2023-11-22T02:07:58;10.15;;;6.05;;
52102;SDS011;38101;53.126;6.878;2023-11-22T02:10:24;8.68;;;5.88;;
52102;SDS011;38101;53.126;6.878;2023-11-22T02:12:50;9.68;;;6.10;;
52102;SDS011;38101;53.126;6.878;2023-11-22T02:15:15;10.48;;;6.72;;
52102;SDS011;38101;53.126;6.878;2023-11-22T02:17:41;9.63;;;5.75;;
52102;SDS011;38101;53.126;6.878;2023-11-22T02:20:07;9.30;;;5.85;;
52102;SDS011;38101;53.126;6.878;2023-11-22T02:22:43;8.60;;;5.85;;
52102;SDS011;38101;53.126;6.878;2023-11-22T02:25:12;9.88;;;6.50;;
52102;SDS011;38101;53.126;6.878;2023-11-22T02:27:38;10.15;;;6.30;;
52102;SDS011;38101;53.126;6.878;2023-11-22T02:30:05;10.45;;;6.20;;
52102;SDS011;38101;53.126;6.878;2023-11-22T02:32:31;7.95;;;5.30;;
52102;SDS011;38101;53.126;6.878;2023-11-22T02:34:58;7.72;;;4.75;;
52102;SDS011;38101;53.126;6.878;2023-11-22T02:37:24;13.00;;;5.13;;
52102;SDS011;38101;53.126;6.878;2023-11-22T02:42:40;7.55;;;5.63;;
52102;SDS011;38101;53.126;6.878;2023-11-22T02:45:05;10.40;;;5.63;;
52102;SDS011;38101;53.126;6.878;2023-11-22T02:47:31;9.40;;;6.20;;
52102;SDS011;38101;53.126;6.878;2023-11-22T02:49:59;9.15;;;5.97;;
52102;SDS011;38101;53.126;6.878;2023-11-22T02:52:26;10.15;;;5.88;;
52102;SDS011;38101;53.126;6.878;2023-11-22T02:54:51;10.85;;;6.05;;
52102;SDS011;38101;53.126;6.878;2023-11-22T02:57:17;10.05;;;6.20;;
52102;SDS011;38101;53.126;6.878;2023-11-22T02:59:43;8.85;;;5.78;;
52102;SDS011;38101;53.126;6.878;2023-11-22T03:02:09;9.38;;;5.90;;
52102;SDS011;38101;53.126;6.878;2023-11-22T03:04:36;9.23;;;5.22;;
52102;SDS011;38101;53.126;6.878;2023-11-22T03:07:03;10.55;;;6.18;;
52102;SDS011;38101;53.126;6.878;2023-11-22T03:09:31;8.75;;;5.70;;
52102;SDS011;38101;53.126;6.878;2023-11-22T03:11:57;9.07;;;5.70;;
52102;SDS011;38101;53.126;6.878;2023-11-22T03:14:23;10.73;;;6.63;;
52102;SDS011;38101;53.126;6.878;2023-11-22T03:16:48;9.30;;;6.18;;
52102;SDS011;38101;53.126;6.878;2023-11-22T03:19:14;10.63;;;6.60;;
52102;SDS011;38101;53.126;6.878;2023-11-22T03:21:40;11.73;;;7.18;;
52102;SDS011;38101;53.126;6.878;2023-11-22T03:24:09;11.63;;;6.78;;
52102;SDS011;38101;53.126;6.878;2023-11-22T03:26:35;9.80;;;6.97;;
52102;SDS011;38101;53.126;6.878;2023-11-22T03:29:00;10.50;;;6.50;;
52102;SDS011;38101;53.126;6.878;2023-11-22T03:31:29;10.98;;;6.43;;
52102;SDS011;38101;53.126;6.878;2023-11-22T03:33:56;10.65;;;6.35;;
52102;SDS011;38101;53.126;6.878;2023-11-22T03:36:22;9.32;;;6.00;;
52102;SDS011;38101;53.126;6.878;2023-11-22T03:38:49;9.38;;;5.82;;
52102;SDS011;38101;53.126;6.878;2023-11-22T03:41:15;10.00;;;5.70;;
52102;SDS011;38101;53.126;6.878;2023-11-22T03:43:42;7.60;;;4.70;;
52102;SDS011;38101;53.126;6.878;2023-11-22T03:46:08;8.18;;;4.78;;
52102;SDS011;38101;53.126;6.878;2023-11-22T03:48:36;8.90;;;5.03;;
52102;SDS011;38101;53.126;6.878;2023-11-22T03:51:02;8.98;;;5.32;;
52102;SDS011;38101;53.126;6.878;2023-11-22T03:53:28;7.95;;;5.47;;
52102;SDS011;38101;53.126;6.878;2023-11-22T03:55:54;8.10;;;5.47;;
52102;SDS011;38101;53.126;6.878;2023-11-22T03:58:19;8.73;;;5.43;;
52102;SDS011;38101;53.126;6.878;2023-11-22T04:00:46;11.35;;;5.72;;
52102;SDS011;38101;53.126;6.878;2023-11-22T04:03:11;7.30;;;4.88;;
52102;SDS011;38101;53.126;6.878;2023-11-22T04:05:37;7.30;;;4.60;;
52102;SDS011;38101;53.126;6.878;2023-11-22T04:08:03;9.73;;;5.63;;
52102;SDS011;38101;53.126;6.878;2023-11-22T04:10:29;9.25;;;5.82;;
52102;SDS011;38101;53.126;6.878;2023-11-22T04:12:55;9.15;;;6.55;;
52102;SDS011;38101;53.126;6.878;2023-11-22T04:15:22;9.88;;;6.13;;
52102;SDS011;38101;53.126;6.878;2023-11-22T04:17:47;8.25;;;5.68;;
52102;SDS011;38101;53.126;6.878;2023-11-22T04:20:14;8.38;;;5.20;;
52102;SDS011;38101;53.126;6.878;2023-11-22T04:22:43;8.40;;;5.88;;
52102;SDS011;38101;53.126;6.878;2023-11-22T04:25:13;7.95;;;5.70;;
52102;SDS011;38101;53.126;6.878;2023-11-22T04:27:39;8.70;;;5.55;;
52102;SDS011;38101;53.126;6.878;2023-11-22T04:30:06;8.95;;;5.40;;
52102;SDS011;38101;53.126;6.878;2023-11-22T04:32:42;6.17;;;4.90;;
52102;SDS011;38101;53.126;6.878;2023-11-22T04:35:08;9.85;;;5.25;;
52102;SDS011;38101;53.126;6.878;2023-11-22T04:37:35;7.97;;;5.13;;
52102;SDS011;38101;53.126;6.878;2023-11-22T04:40:01;11.43;;;6.32;;
52102;SDS011;38101;53.126;6.878;2023-11-22T04:42:28;10.02;;;6.38;;
52102;SDS011;38101;53.126;6.878;2023-11-22T04:44:54;11.35;;;6.90;;
52102;SDS011;38101;53.126;6.878;2023-11-22T04:47:20;13.43;;;7.35;;
52102;SDS011;38101;53.126;6.878;2023-11-22T04:49:50;10.63;;;6.57;;
52102;SDS011;38101;53.126;6.878;2023-11-22T04:52:16;9.80;;;6.45;;
52102;SDS011;38101;53.126;6.878;2023-11-22T04:54:41;11.77;;;6.90;;
52102;SDS011;38101;53.126;6.878;2023-11-22T04:57:07;13.13;;;7.50;;
52102;SDS011;38101;53.126;6.878;2023-11-22T04:59:32;14.43;;;7.97;;
52102;SDS011;38101;53.126;6.878;2023-11-22T05:01:58;12.07;;;7.35;;
52102;SDS011;38101;53.126;6.878;2023-11-22T05:04:24;13.07;;;7.75;;
52102;SDS011;38101;53.126;6.878;2023-11-22T05:06:51;12.45;;;7.72;;
52102;SDS011;38101;53.126;6.878;2023-11-22T05:09:21;11.68;;;7.10;;
52102;SDS011;38101;53.126;6.878;2023-11-22T05:11:47;9.70;;;6.07;;
52102;SDS011;38101;53.126;6.878;2023-11-22T05:14:12;8.82;;;5.70;;
52102;SDS011;38101;53.126;6.878;2023-11-22T05:16:38;11.68;;;6.85;;
52102;SDS011;38101;53.126;6.878;2023-11-22T05:19:04;12.23;;;7.20;;
52102;SDS011;38101;53.126;6.878;2023-11-22T05:21:30;12.52;;;7.28;;
52102;SDS011;38101;53.126;6.878;2023-11-22T05:23:57;13.07;;;7.95;;
52102;SDS011;38101;53.126;6.878;2023-11-22T05:26:24;12.48;;;7.65;;
52102;SDS011;38101;53.126;6.878;2023-11-22T05:28:49;14.35;;;8.20;;
52102;SDS011;38101;53.126;6.878;2023-11-22T05:31:15;11.93;;;8.27;;
52102;SDS011;38101;53.126;6.878;2023-11-22T05:33:41;11.75;;;7.40;;
52102;SDS011;38101;53.126;6.878;2023-11-22T05:36:07;13.82;;;7.78;;
52102;SDS011;38101;53.126;6.878;2023-11-22T05:38:33;11.40;;;6.45;;
52102;SDS011;38101;53.126;6.878;2023-11-22T05:40:59;12.45;;;7.28;;
52102;SDS011;38101;53.126;6.878;2023-11-22T05:43:25;12.75;;;7.55;;
52102;SDS011;38101;53.126;6.878;2023-11-22T05:45:55;12.80;;;7.55;;
52102;SDS011;38101;53.126;6.878;2023-11-22T05:48:21;13.63;;;7.80;;
52102;SDS011;38101;53.126;6.878;2023-11-22T05:50:47;11.73;;;7.80;;
52102;SDS011;38101;53.126;6.878;2023-11-22T05:53:13;12.10;;;7.93;;
52102;SDS011;38101;53.126;6.878;2023-11-22T05:55:47;13.45;;;8.18;;
52102;SDS011;38101;53.126;6.878;2023-11-22T05:58:13;14.90;;;8.85;;
52102;SDS011;38101;53.126;6.878;2023-11-22T06:00:47;12.00;;;7.72;;
52102;SDS011;38101;53.126;6.878;2023-11-22T06:03:13;10.05;;;6.60;;
52102;SDS011;38101;53.126;6.878;2023-11-22T06:05:39;12.02;;;7.63;;
52102;SDS011;38101;53.126;6.878;2023-11-22T06:08:05;11.73;;;7.05;;
52102;SDS011;38101;53.126;6.878;2023-11-22T06:10:31;11.82;;;7.30;;
52102;SDS011;38101;53.126;6.878;2023-11-22T06:12:57;12.38;;;7.55;;
52102;SDS011;38101;53.126;6.878;2023-11-22T06:15:23;10.77;;;6.72;;
52102;SDS011;38101;53.126;6.878;2023-11-22T06:17:49;10.23;;;6.85;;
52102;SDS011;38101;53.126;6.878;2023-11-22T06:20:15;10.35;;;7.20;;
52102;SDS011;38101;53.126;6.878;2023-11-22T06:22:41;13.15;;;8.40;;
52102;SDS011;38101;53.126;6.878;2023-11-22T06:25:13;12.15;;;8.38;;
52102;SDS011;38101;53.126;6.878;2023-11-22T06:27:40;11.65;;;7.88;;
52102;SDS011;38101;53.126;6.878;2023-11-22T06:30:06;14.57;;;8.80;;
52102;SDS011;38101;53.126;6.878;2023-11-22T06:32:34;11.80;;;8.02;;
52102;SDS011;38101;53.126;6.878;2023-11-22T06:35:00;14.60;;;8.77;;
52102;SDS011;38101;53.126;6.878;2023-11-22T06:37:25;13.45;;;8.38;;
52102;SDS011;38101;53.126;6.878;2023-11-22T06:39:51;16.38;;;8.90;;
52102;SDS011;38101;53.126;6.878;2023-11-22T06:42:17;13.23;;;8.85;;
52102;SDS011;38101;53.126;6.878;2023-11-22T06:44:44;13.32;;;8.27;;
52102;SDS011;38101;53.126;6.878;2023-11-22T06:47:13;12.27;;;8.60;;
52102;SDS011;38101;53.126;6.878;2023-11-22T06:49:39;17.10;;;9.70;;
52102;SDS011;38101;53.126;6.878;2023-11-22T06:52:04;17.92;;;9.40;;
52102;SDS011;38101;53.126;6.878;2023-11-22T06:54:30;14.88;;;8.93;;
52102;SDS011;38101;53.126;6.878;2023-11-22T06:56:56;13.00;;;8.52;;
52102;SDS011;38101;53.126;6.878;2023-11-22T06:59:22;18.25;;;9.57;;
52102;SDS011;38101;53.126;6.878;2023-11-22T07:01:48;15.63;;;9.63;;
52102;SDS011;38101;53.126;6.878;2023-11-22T07:04:13;15.15;;;8.18;;
52102;SDS011;38101;53.126;6.878;2023-11-22T07:06:39;17.40;;;10.20;;
52102;SDS011;38101;53.126;6.878;2023-11-22T07:09:05;17.65;;;10.90;;
52102;SDS011;38101;53.126;6.878;2023-11-22T07:11:34;17.35;;;10.98;;
52102;SDS011;38101;53.126;6.878;2023-11-22T07:14:02;21.83;;;11.27;;
52102;SDS011;38101;53.126;6.878;2023-11-22T07:16:29;18.45;;;10.57;;
52102;SDS011;38101;53.126;6.878;2023-11-22T07:18:55;18.23;;;10.98;;
52102;SDS011;38101;53.126;6.878;2023-11-22T07:21:21;18.60;;;11.02;;
52102;SDS011;38101;53.126;6.878;2023-11-22T07:23:47;17.08;;;10.75;;
52102;SDS011;38101;53.126;6.878;2023-11-22T07:26:13;16.92;;;10.88;;
52102;SDS011;38101;53.126;6.878;2023-11-22T07:28:40;19.58;;;11.65;;
52102;SDS011;38101;53.126;6.878;2023-11-22T07:31:09;21.30;;;12.05;;
52102;SDS011;38101;53.126;6.878;2023-11-22T07:33:36;18.42;;;11.68;;
52102;SDS011;38101;53.126;6.878;2023-11-22T07:36:04;18.42;;;11.07;;
52102;SDS011;38101;53.126;6.878;2023-11-22T07:38:30;17.77;;;11.55;;
52102;SDS011;38101;53.126;6.878;2023-11-22T07:40:57;19.55;;;12.23;;
52102;SDS011;38101;53.126;6.878;2023-11-22T07:43:23;22.48;;;12.73;;
52102;SDS011;38101;53.126;6.878;2023-11-22T07:45:49;19.98;;;11.02;;
52102;SDS011;38101;53.126;6.878;2023-11-22T07:48:16;22.50;;;12.05;;
52102;SDS011;38101;53.126;6.878;2023-11-22T07:50:42;20.10;;;11.82;;
52102;SDS011;38101;53.126;6.878;2023-11-22T07:53:11;21.55;;;11.82;;
52102;SDS011;38101;53.126;6.878;2023-11-22T07:55:40;21.15;;;11.95;;
52102;SDS011;38101;53.126;6.878;2023-11-22T07:58:07;18.75;;;11.27;;
52102;SDS011;38101;53.126;6.878;2023-11-22T08:00:33;19.27;;;11.77;;
52102;SDS011;38101;53.126;6.878;2023-11-22T08:03:00;16.95;;;11.00;;
52102;SDS011;38101;53.126;6.878;2023-11-22T08:05:32;16.52;;;10.35;;
52102;SDS011;38101;53.126;6.878;2023-11-22T08:08:05;19.45;;;11.48;;
52102;SDS011;38101;53.126;6.878;2023-11-22T08:10:36;17.05;;;10.77;;
52102;SDS011;38101;53.126;6.878;2023-11-22T08:13:02;17.35;;;10.70;;
52102;SDS011;38101;53.126;6.878;2023-11-22T08:15:29;18.27;;;10.30;;
52102;SDS011;38101;53.126;6.878;2023-11-22T08:17:56;16.27;;;9.77;;
52102;SDS011;38101;53.126;6.878;2023-11-22T08:20:23;18.77;;;10.35;;
52102;SDS011;38101;53.126;6.878;2023-11-22T08:22:50;21.83;;;11.68;;
52102;SDS011;38101;53.126;6.878;2023-11-22T08:25:16;17.75;;;11.45;;
52102;SDS011;38101;53.126;6.878;2023-11-22T08:27:42;16.27;;;10.63;;
52102;SDS011;38101;53.126;6.878;2023-11-22T08:30:08;17.40;;;10.63;;
52102;SDS011;38101;53.126;6.878;2023-11-22T08:32:41;15.10;;;9.85;;
52102;SDS011;38101;53.126;6.878;2023-11-22T08:35:08;15.73;;;9.70;;
52102;SDS011;38101;53.126;6.878;2023-11-22T08:37:35;16.92;;;9.80;;
52102;SDS011;38101;53.126;6.878;2023-11-22T08:40:03;22.15;;;10.90;;
52102;SDS011;38101;53.126;6.878;2023-11-22T08:42:30;17.60;;;9.98;;
52102;SDS011;38101;53.126;6.878;2023-11-22T08:44:56;18.92;;;9.73;;
52102;SDS011;38101;53.126;6.878;2023-11-22T08:47:22;16.00;;;9.65;;
52102;SDS011;38101;53.126;6.878;2023-11-22T08:49:47;15.18;;;9.38;;
52102;SDS011;38101;53.126;6.878;2023-11-22T08:52:13;18.70;;;9.80;;
52102;SDS011;38101;53.126;6.878;2023-11-22T08:54:39;18.75;;;9.20;;
52102;SDS011;38101;53.126;6.878;2023-11-22T08:57:06;13.98;;;8.95;;
52102;SDS011;38101;53.126;6.878;2023-11-22T08:59:32;14.13;;;8.88;;
52102;SDS011;38101;53.126;6.878;2023-11-22T09:02:03;14.85;;;8.80;;
52102;SDS011;38101;53.126;6.878;2023-11-22T09:04:29;22.70;;;9.88;;
52102;SDS011;38101;53.126;6.878;2023-11-22T09:06:57;17.35;;;9.60;;
52102;SDS011;38101;53.126;6.878;2023-11-22T09:09:23;18.95;;;10.20;;
52102;SDS011;38101;53.126;6.878;2023-11-22T09:11:56;19.00;;;9.27;;
52102;SDS011;38101;53.126;6.878;2023-11-22T09:14:22;13.55;;;8.88;;
52102;SDS011;38101;53.126;6.878;2023-11-22T09:16:49;29.35;;;11.15;;
52102;SDS011;38101;53.126;6.878;2023-11-22T09:19:20;16.83;;;9.77;;
52102;SDS011;38101;53.126;6.878;2023-11-22T09:21:46;16.65;;;9.10;;
52102;SDS011;38101;53.126;6.878;2023-11-22T09:24:12;14.77;;;9.02;;
52102;SDS011;38101;53.126;6.878;2023-11-22T09:26:37;14.38;;;9.40;;
52102;SDS011;38101;53.126;6.878;2023-11-22T09:29:03;19.75;;;9.77;;
52102;SDS011;38101;53.126;6.878;2023-11-22T09:31:30;14.93;;;9.25;;
52102;SDS011;38101;53.126;6.878;2023-11-22T09:33:55;15.40;;;9.68;;
52102;SDS011;38101;53.126;6.878;2023-11-22T09:36:22;18.33;;;8.75;;
52102;SDS011;38101;53.126;6.878;2023-11-22T09:38:52;13.10;;;8.50;;
52102;SDS011;38101;53.126;6.878;2023-11-22T09:41:18;15.18;;;9.55;;
52102;SDS011;38101;53.126;6.878;2023-11-22T09:43:44;16.27;;;9.55;;
52102;SDS011;38101;53.126;6.878;2023-11-22T09:46:14;12.43;;;8.82;;
52102;SDS011;38101;53.126;6.878;2023-11-22T09:48:42;21.58;;;10.55;;
52102;SDS011;38101;53.126;6.878;2023-11-22T09:51:29;25.13;;;10.68;;
52102;SDS011;38101;53.126;6.878;2023-11-22T09:54:03;19.05;;;9.70;;
52102;SDS011;38101;53.126;6.878;2023-11-22T09:56:32;17.25;;;9.77;;
52102;SDS011;38101;53.126;6.878;2023-11-22T09:59:00;15.57;;;9.18;;
52102;SDS011;38101;53.126;6.878;2023-11-22T10:01:27;14.63;;;9.18;;
52102;SDS011;38101;53.126;6.878;2023-11-22T10:03:54;14.23;;;8.77;;
52102;SDS011;38101;53.126;6.878;2023-11-22T10:06:20;24.60;;;10.90;;
52102;SDS011;38101;53.126;6.878;2023-11-22T10:08:46;15.27;;;8.93;;
52102;SDS011;38101;53.126;6.878;2023-11-22T10:11:15;17.15;;;9.23;;
52102;SDS011;38101;53.126;6.878;2023-11-22T10:13:48;23.50;;;10.57;;
52102;SDS011;38101;53.126;6.878;2023-11-22T10:16:15;20.20;;;10.05;;
52102;SDS011;38101;53.126;6.878;2023-11-22T10:18:42;15.10;;;9.38;;
52102;SDS011;38101;53.126;6.878;2023-11-22T10:21:18;14.30;;;9.00;;
52102;SDS011;38101;53.126;6.878;2023-11-22T10:23:46;16.15;;;9.32;;
52102;SDS011;38101;53.126;6.878;2023-11-22T10:26:17;17.52;;;10.10;;
52102;SDS011;38101;53.126;6.878;2023-11-22T10:28:42;19.40;;;10.23;;
52102;SDS011;38101;53.126;6.878;2023-11-22T10:31:08;14.93;;;9.77;;
52102;SDS011;38101;53.126;6.878;2023-11-22T10:33:40;259.08;;;40.30;;
52102;SDS011;38101;53.126;6.878;2023-11-22T10:36:08;23.63;;;10.48;;
52102;SDS011;38101;53.126;6.878;2023-11-22T10:38:35;23.27;;;9.88;;
52102;SDS011;38101;53.126;6.878;2023-11-22T10:41:07;16.10;;;9.57;;
52102;SDS011;38101;53.126;6.878;2023-11-22T10:43:37;15.65;;;9.88;;
52102;SDS011;38101;53.126;6.878;2023-11-22T10:46:03;17.48;;;9.35;;
52102;SDS011;38101;53.126;6.878;2023-11-22T10:48:35;14.65;;;8.63;;
52102;SDS011;38101;53.126;6.878;2023-11-22T10:51:01;29.00;;;10.63;;
52102;SDS011;38101;53.126;6.878;2023-11-22T10:53:35;13.98;;;8.45;;
52102;SDS011;38101;53.126;6.878;2023-11-22T10:56:14;14.15;;;8.13;;
52102;SDS011;38101;53.126;6.878;2023-11-22T11:01:14;14.10;;;8.25;;
52102;SDS011;38101;53.126;6.878;2023-11-22T11:03:41;15.50;;;8.48;;
52102;SDS011;38101;53.126;6.878;2023-11-22T11:06:16;17.55;;;9.27;;
52102;SDS011;38101;53.126;6.878;2023-11-22T11:08:52;17.85;;;8.88;;
52102;SDS011;38101;53.126;6.878;2023-11-22T11:11:19;19.75;;;9.02;;
52102;SDS011;38101;53.126;6.878;2023-11-22T11:13:46;12.10;;;7.88;;
52102;SDS011;38101;53.126;6.878;2023-11-22T11:16:13;10.85;;;7.43;;
52102;SDS011;38101;53.126;6.878;2023-11-22T11:18:39;13.95;;;7.90;;
52102;SDS011;38101;53.126;6.878;2023-11-22T11:21:09;11.60;;;8.43;;
52102;SDS011;38101;53.126;6.878;2023-11-22T11:23:41;11.82;;;7.68;;
52102;SDS011;38101;53.126;6.878;2023-11-22T11:28:44;9.88;;;6.45;;
52102;SDS011;38101;53.126;6.878;2023-11-22T11:31:12;12.20;;;6.90;;
52102;SDS011;38101;53.126;6.878;2023-11-22T11:38:50;9.70;;;6.82;;
52102;SDS011;38101;53.126;6.878;2023-11-22T11:41:25;13.20;;;7.10;;
52102;SDS011;38101;53.126;6.878;2023-11-22T11:43:53;10.52;;;7.00;;
52102;SDS011;38101;53.126;6.878;2023-11-22T11:46:21;10.02;;;6.97;;
52102;SDS011;38101;53.126;6.878;2023-11-22T11:48:51;11.32;;;6.70;;
52102;SDS011;38101;53.126;6.878;2023-11-22T11:51:18;10.77;;;6.70;;
52102;SDS011;38101;53.126;6.878;2023-11-22T11:53:45;11.20;;;7.53;;
52102;SDS011;38101;53.126;6.878;2023-11-22T11:56:11;10.70;;;7.30;;
52102;SDS011;38101;53.126;6.878;2023-11-22T11:58:37;10.50;;;6.68;;
52102;SDS011;38101;53.126;6.878;2023-11-22T12:01:04;10.38;;;6.90;;
52102;SDS011;38101;53.126;6.878;2023-11-22T12:03:32;10.10;;;6.63;;
52102;SDS011;38101;53.126;6.878;2023-11-22T12:05:58;11.43;;;6.57;;
52102;SDS011;38101;53.126;6.878;2023-11-22T12:08:23;9.52;;;6.40;;
52102;SDS011;38101;53.126;6.878;2023-11-22T12:10:49;13.20;;;6.03;;
52102;SDS011;38101;53.126;6.878;2023-11-22T12:13:20;9.85;;;6.43;;
52102;SDS011;38101;53.126;6.878;2023-11-22T12:15:52;10.18;;;7.03;;
52102;SDS011;38101;53.126;6.878;2023-11-22T12:18:21;11.05;;;6.28;;
52102;SDS011;38101;53.126;6.878;2023-11-22T12:21:05;11.43;;;6.53;;
52102;SDS011;38101;53.126;6.878;2023-11-22T12:23:32;11.18;;;5.85;;
52102;SDS011;38101;53.126;6.878;2023-11-22T12:25:58;9.48;;;5.95;;
52102;SDS011;38101;53.126;6.878;2023-11-22T12:28:26;11.27;;;6.43;;
52102;SDS011;38101;53.126;6.878;2023-11-22T12:30:53;13.48;;;6.40;;
52102;SDS011;38101;53.126;6.878;2023-11-22T12:33:19;8.57;;;5.63;;
52102;SDS011;38101;53.126;6.878;2023-11-22T12:35:45;8.05;;;5.20;;
52102;SDS011;38101;53.126;6.878;2023-11-22T12:38:11;8.02;;;5.28;;
52102;SDS011;38101;53.126;6.878;2023-11-22T12:40:37;12.55;;;5.18;;
52102;SDS011;38101;53.126;6.878;2023-11-22T12:43:08;8.20;;;5.75;;
52102;SDS011;38101;53.126;6.878;2023-11-22T12:45:33;8.43;;;4.85;;
52102;SDS011;38101;53.126;6.878;2023-11-22T12:48:19;8.15;;;5.38;;
52102;SDS011;38101;53.126;6.878;2023-11-22T12:53:15;10.85;;;5.10;;
52102;SDS011;38101;53.126;6.878;2023-11-22T12:55:41;7.80;;;5.43;;
52102;SDS011;38101;53.126;6.878;2023-11-22T12:58:13;7.88;;;4.90;;
52102;SDS011;38101;53.126;6.878;2023-11-22T13:00:39;7.82;;;5.22;;
52102;SDS011;38101;53.126;6.878;2023-11-22T13:03:08;7.97;;;5.03;;
52102;SDS011;38101;53.126;6.878;2023-11-22T13:05:41;9.52;;;5.93;;
52102;SDS011;38101;53.126;6.878;2023-11-22T13:08:08;7.53;;;4.97;;
52102;SDS011;38101;53.126;6.878;2023-11-22T13:10:46;8.23;;;5.20;;
52102;SDS011;38101;53.126;6.878;2023-11-22T13:13:20;11.32;;;6.35;;
52102;SDS011;38101;53.126;6.878;2023-11-22T13:15:46;7.70;;;5.18;;
52102;SDS011;38101;53.126;6.878;2023-11-22T13:18:13;11.70;;;5.85;;
52102;SDS011;38101;53.126;6.878;2023-11-22T13:20:38;11.68;;;5.78;;
52102;SDS011;38101;53.126;6.878;2023-11-22T13:23:06;12.15;;;6.00;;
52102;SDS011;38101;53.126;6.878;2023-11-22T13:25:32;8.02;;;5.40;;
52102;SDS011;38101;53.126;6.878;2023-11-22T13:27:58;8.10;;;5.30;;
52102;SDS011;38101;53.126;6.878;2023-11-22T13:30:24;8.77;;;5.20;;
52102;SDS011;38101;53.126;6.878;2023-11-22T13:32:51;7.18;;;4.88;;
52102;SDS011;38101;53.126;6.878;2023-11-22T13:35:17;6.78;;;4.72;;
52102;SDS011;38101;53.126;6.878;2023-11-22T13:37:44;8.63;;;5.60;;
52102;SDS011;38101;53.126;6.878;2023-11-22T13:40:11;8.15;;;5.40;;
52102;SDS011;38101;53.126;6.878;2023-11-22T13:42:43;8.85;;;5.22;;
52102;SDS011;38101;53.126;6.878;2023-11-22T13:45:10;7.35;;;5.07;;
52102;SDS011;38101;53.126;6.878;2023-11-22T13:47:40;7.68;;;5.22;;
52102;SDS011;38101;53.126;6.878;2023-11-22T13:50:08;7.78;;;5.13;;
52102;SDS011;38101;53.126;6.878;2023-11-22T13:52:35;8.70;;;5.63;;
52102;SDS011;38101;53.126;6.878;2023-11-22T13:55:01;7.35;;;4.93;;
52102;SDS011;38101;53.126;6.878;2023-11-22T13:57:32;7.97;;;5.40;;
52102;SDS011;38101;53.126;6.878;2023-11-22T13:59:58;8.65;;;5.65;;
52102;SDS011;38101;53.126;6.878;2023-11-22T14:02:23;7.15;;;4.75;;
52102;SDS011;38101;53.126;6.878;2023-11-22T14:04:49;8.73;;;4.78;;
52102;SDS011;38101;53.126;6.878;2023-11-22T14:07:15;8.35;;;4.80;;
52102;SDS011;38101;53.126;6.878;2023-11-22T14:09:40;7.25;;;4.80;;
52102;SDS011;38101;53.126;6.878;2023-11-22T14:12:06;7.05;;;5.03;;
52102;SDS011;38101;53.126;6.878;2023-11-22T14:14:32;9.30;;;5.18;;
52102;SDS011;38101;53.126;6.878;2023-11-22T14:16:57;7.53;;;5.35;;
52102;SDS011;38101;53.126;6.878;2023-11-22T14:19:23;9.50;;;5.60;;
52102;SDS011;38101;53.126;6.878;2023-11-22T14:21:49;10.00;;;5.13;;
52102;SDS011;38101;53.126;6.878;2023-11-22T14:24:14;8.88;;;5.05;;
52102;SDS011;38101;53.126;6.878;2023-11-22T14:26:40;8.77;;;5.72;;
52102;SDS011;38101;53.126;6.878;2023-11-22T14:29:06;16.20;;;5.80;;
52102;SDS011;38101;53.126;6.878;2023-11-22T14:31:32;10.52;;;5.72;;
52102;SDS011;38101;53.126;6.878;2023-11-22T14:33:58;8.25;;;5.43;;
52102;SDS011;38101;53.126;6.878;2023-11-22T14:36:24;8.35;;;5.72;;
52102;SDS011;38101;53.126;6.878;2023-11-22T14:38:51;10.32;;;5.93;;
52102;SDS011;38101;53.126;6.878;2023-11-22T14:41:21;10.80;;;6.15;;
52102;SDS011;38101;53.126;6.878;2023-11-22T14:43:47;7.45;;;5.25;;
52102;SDS011;38101;53.126;6.878;2023-11-22T14:46:13;8.55;;;5.85;;
52102;SDS011;38101;53.126;6.878;2023-11-22T14:48:39;7.97;;;5.10;;
52102;SDS011;38101;53.126;6.878;2023-11-22T14:51:05;8.82;;;6.13;;
52102;SDS011;38101;53.126;6.878;2023-11-22T14:53:30;9.98;;;5.70;;
52102;SDS011;38101;53.126;6.878;2023-11-22T14:55:56;11.38;;;5.70;;